sensor_id;sensor_type;location;lat;lon;timestamp;temperature;humidity
37956;DHT22;23776;51.592;7.180;2024-03-29T00:00:41;9.50;1.00
37956;DHT22;23776;51.592;7.180;2024-03-29T00:03:09;9.40;1.00
37956;DHT22;23776;51.592;7.180;2024-03-29T00:05:35;9.40;1.00
37956;DHT22;23776;51.592;7.180;2024-03-29T00:08:01;9.40;1.00
37956;DHT22;23776;51.592;7.180;2024-03-29T00:10:27;9.40;1.00
37956;DHT22;23776;51.592;7.180;2024-03-29T00:12:52;9.50;1.00
37956;DHT22;23776;51.592;7.180;2024-03-29T00:15:18;9.50;1.00
37956;DHT22;23776;51.592;7.180;2024-03-29T00:17:43;9.40;1.00
37956;DHT22;23776;51.592;7.180;2024-03-29T00:20:09;9.70;1.00
37956;DHT22;23776;51.592;7.180;2024-03-29T00:22:35;9.50;1.00
37956;DHT22;23776;51.592;7.180;2024-03-29T00:25:01;9.50;1.00
37956;DHT22;23776;51.592;7.180;2024-03-29T00:27:27;9.50;1.00
37956;DHT22;23776;51.592;7.180;2024-03-29T00:29:53;9.60;1.00
37956;DHT22;23776;51.592;7.180;2024-03-29T00:32:20;9.60;1.00
37956;DHT22;23776;51.592;7.180;2024-03-29T00:34:48;9.60;1.00
37956;DHT22;23776;51.592;7.180;2024-03-29T00:37:14;9.70;1.00
37956;DHT22;23776;51.592;7.180;2024-03-29T00:39:39;9.70;1.00
37956;DHT22;23776;51.592;7.180;2024-03-29T00:42:05;9.80;1.00
37956;DHT22;23776;51.592;7.180;2024-03-29T00:44:34;9.70;1.00
37956;DHT22;23776;51.592;7.180;2024-03-29T00:47:01;9.70;1.00
37956;DHT22;23776;51.592;7.180;2024-03-29T00:49:26;9.70;1.00
37956;DHT22;23776;51.592;7.180;2024-03-29T00:51:52;9.80;1.00
37956;DHT22;23776;51.592;7.180;2024-03-29T00:54:18;9.80;1.00
37956;DHT22;23776;51.592;7.180;2024-03-29T00:56:44;9.80;1.00
37956;DHT22;23776;51.592;7.180;2024-03-29T00:59:10;9.90;1.00
37956;DHT22;23776;51.592;7.180;2024-03-29T01:01:35;9.80;1.00
37956;DHT22;23776;51.592;7.180;2024-03-29T01:04:01;9.80;1.00
37956;DHT22;23776;51.592;7.180;2024-03-29T01:06:26;9.80;1.00
37956;DHT22;23776;51.592;7.180;2024-03-29T01:08:52;9.80;1.00
37956;DHT22;23776;51.592;7.180;2024-03-29T01:11:17;9.80;1.00
37956;DHT22;23776;51.592;7.180;2024-03-29T01:13:43;9.80;1.00
37956;DHT22;23776;51.592;7.180;2024-03-29T01:18:34;9.80;1.00
37956;DHT22;23776;51.592;7.180;2024-03-29T01:21:00;12.10;1.00
37956;DHT22;23776;51.592;7.180;2024-03-29T01:23:25;9.70;1.00
37956;DHT22;23776;51.592;7.180;2024-03-29T01:25:51;9.70;1.00
37956;DHT22;23776;51.592;7.180;2024-03-29T01:28:16;9.60;1.00
37956;DHT22;23776;51.592;7.180;2024-03-29T01:30:42;9.60;1.00
37956;DHT22;23776;51.592;7.180;2024-03-29T01:33:08;9.70;1.00
37956;DHT22;23776;51.592;7.180;2024-03-29T01:35:33;9.60;1.00
37956;DHT22;23776;51.592;7.180;2024-03-29T01:37:59;9.70;1.00
37956;DHT22;23776;51.592;7.180;2024-03-29T01:40:24;9.70;1.00
37956;DHT22;23776;51.592;7.180;2024-03-29T01:42:53;9.70;1.00
37956;DHT22;23776;51.592;7.180;2024-03-29T01:45:19;9.70;1.00
37956;DHT22;23776;51.592;7.180;2024-03-29T01:47:46;9.80;1.00
37956;DHT22;23776;51.592;7.180;2024-03-29T01:50:12;9.80;1.00
37956;DHT22;23776;51.592;7.180;2024-03-29T01:52:38;9.80;1.00
37956;DHT22;23776;51.592;7.180;2024-03-29T01:55:04;9.90;1.00
37956;DHT22;23776;51.592;7.180;2024-03-29T01:57:29;9.90;1.00
37956;DHT22;23776;51.592;7.180;2024-03-29T01:59:56;9.90;1.00
37956;DHT22;23776;51.592;7.180;2024-03-29T02:02:22;10.00;1.00
37956;DHT22;23776;51.592;7.180;2024-03-29T02:04:49;10.00;1.00
37956;DHT22;23776;51.592;7.180;2024-03-29T02:07:15;10.00;1.00
37956;DHT22;23776;51.592;7.180;2024-03-29T02:09:40;10.00;1.00
37956;DHT22;23776;51.592;7.180;2024-03-29T02:12:06;10.00;1.00
37956;DHT22;23776;51.592;7.180;2024-03-29T02:14:32;10.00;1.00
37956;DHT22;23776;51.592;7.180;2024-03-29T02:16:57;10.00;1.00
37956;DHT22;23776;51.592;7.180;2024-03-29T02:19:23;10.00;1.00
37956;DHT22;23776;51.592;7.180;2024-03-29T02:21:50;10.00;1.00
37956;DHT22;23776;51.592;7.180;2024-03-29T02:24:19;10.00;1.00
37956;DHT22;23776;51.592;7.180;2024-03-29T02:26:45;10.10;1.00
37956;DHT22;23776;51.592;7.180;2024-03-29T02:29:12;10.10;1.00
37956;DHT22;23776;51.592;7.180;2024-03-29T02:31:38;10.10;1.00
37956;DHT22;23776;51.592;7.180;2024-03-29T02:34:03;10.10;1.00
37956;DHT22;23776;51.592;7.180;2024-03-29T02:36:29;10.10;1.00
37956;DHT22;23776;51.592;7.180;2024-03-29T02:38:54;10.10;1.00
37956;DHT22;23776;51.592;7.180;2024-03-29T02:41:20;10.10;1.00
37956;DHT22;23776;51.592;7.180;2024-03-29T02:43:46;10.10;1.00
37956;DHT22;23776;51.592;7.180;2024-03-29T02:46:12;10.10;1.00
37956;DHT22;23776;51.592;7.180;2024-03-29T02:48:37;10.10;1.00
37956;DHT22;23776;51.592;7.180;2024-03-29T02:51:03;10.10;1.00
37956;DHT22;23776;51.592;7.180;2024-03-29T02:53:28;9.50;1.00
37956;DHT22;23776;51.592;7.180;2024-03-29T02:55:54;10.10;1.00
37956;DHT22;23776;51.592;7.180;2024-03-29T02:58:20;10.20;1.00
37956;DHT22;23776;51.592;7.180;2024-03-29T03:00:45;10.10;1.00
37956;DHT22;23776;51.592;7.180;2024-03-29T03:03:15;10.10;1.00
37956;DHT22;23776;51.592;7.180;2024-03-29T03:05:41;10.10;1.00
37956;DHT22;23776;51.592;7.180;2024-03-29T03:08:06;10.10;1.00
37956;DHT22;23776;51.592;7.180;2024-03-29T03:10:50;10.10;1.00
37956;DHT22;23776;51.592;7.180;2024-03-29T03:13:27;10.20;1.00
37956;DHT22;23776;51.592;7.180;2024-03-29T03:15:54;10.40;1.00
37956;DHT22;23776;51.592;7.180;2024-03-29T03:18:19;10.60;1.00
37956;DHT22;23776;51.592;7.180;2024-03-29T03:20:54;10.80;1.00
37956;DHT22;23776;51.592;7.180;2024-03-29T03:23:21;10.90;1.00
37956;DHT22;23776;51.592;7.180;2024-03-29T03:25:57;10.90;1.00
37956;DHT22;23776;51.592;7.180;2024-03-29T03:28:23;10.90;1.00
37956;DHT22;23776;51.592;7.180;2024-03-29T03:30:50;10.90;1.00
37956;DHT22;23776;51.592;7.180;2024-03-29T03:33:15;10.80;1.00
37956;DHT22;23776;51.592;7.180;2024-03-29T03:35:42;10.80;1.00
37956;DHT22;23776;51.592;7.180;2024-03-29T03:38:07;10.80;1.00
37956;DHT22;23776;51.592;7.180;2024-03-29T03:40:36;10.80;1.00
37956;DHT22;23776;51.592;7.180;2024-03-29T03:43:03;10.80;1.00
37956;DHT22;23776;51.592;7.180;2024-03-29T03:45:34;10.80;1.00
37956;DHT22;23776;51.592;7.180;2024-03-29T03:47:59;10.70;1.00
37956;DHT22;23776;51.592;7.180;2024-03-29T03:50:25;10.70;1.00
37956;DHT22;23776;51.592;7.180;2024-03-29T03:52:50;10.70;1.00
37956;DHT22;23776;51.592;7.180;2024-03-29T03:55:16;10.70;1.00
37956;DHT22;23776;51.592;7.180;2024-03-29T03:57:41;10.60;1.00
37956;DHT22;23776;51.592;7.180;2024-03-29T04:00:07;10.90;1.00
37956;DHT22;23776;51.592;7.180;2024-03-29T04:02:34;10.60;1.00
37956;DHT22;23776;51.592;7.180;2024-03-29T04:04:59;10.50;1.00
37956;DHT22;23776;51.592;7.180;2024-03-29T04:07:25;10.50;1.00
37956;DHT22;23776;51.592;7.180;2024-03-29T04:09:51;10.30;1.00
37956;DHT22;23776;51.592;7.180;2024-03-29T04:12:17;12.20;1.00
37956;DHT22;23776;51.592;7.180;2024-03-29T04:14:42;10.20;1.00
37956;DHT22;23776;51.592;7.180;2024-03-29T04:17:08;10.20;6.80
37956;DHT22;23776;51.592;7.180;2024-03-29T04:19:33;10.10;42.60
37956;DHT22;23776;51.592;7.180;2024-03-29T04:21:59;10.00;99.90
37956;DHT22;23776;51.592;7.180;2024-03-29T04:24:25;9.90;99.90
37956;DHT22;23776;51.592;7.180;2024-03-29T04:26:50;9.80;99.90
37956;DHT22;23776;51.592;7.180;2024-03-29T04:29:16;9.80;99.90
37956;DHT22;23776;51.592;7.180;2024-03-29T04:31:41;9.70;1.00
37956;DHT22;23776;51.592;7.180;2024-03-29T04:34:09;9.70;1.00
37956;DHT22;23776;51.592;7.180;2024-03-29T04:36:35;9.70;99.90
37956;DHT22;23776;51.592;7.180;2024-03-29T04:39:00;9.50;1.00
37956;DHT22;23776;51.592;7.180;2024-03-29T04:41:26;9.50;99.90
37956;DHT22;23776;51.592;7.180;2024-03-29T04:43:52;9.40;99.90
37956;DHT22;23776;51.592;7.180;2024-03-29T04:46:17;9.20;1.00
37956;DHT22;23776;51.592;7.180;2024-03-29T04:48:43;9.20;26.70
37956;DHT22;23776;51.592;7.180;2024-03-29T04:51:11;9.10;1.00
37956;DHT22;23776;51.592;7.180;2024-03-29T04:53:40;9.10;1.00
37956;DHT22;23776;51.592;7.180;2024-03-29T04:56:06;9.10;1.00
37956;DHT22;23776;51.592;7.180;2024-03-29T04:58:32;9.10;1.00
37956;DHT22;23776;51.592;7.180;2024-03-29T05:00:58;9.00;1.00
37956;DHT22;23776;51.592;7.180;2024-03-29T05:03:24;10.50;99.90
37956;DHT22;23776;51.592;7.180;2024-03-29T05:05:50;8.80;99.90
37956;DHT22;23776;51.592;7.180;2024-03-29T05:08:17;8.80;1.00
37956;DHT22;23776;51.592;7.180;2024-03-29T05:10:46;8.80;99.90
37956;DHT22;23776;51.592;7.180;2024-03-29T05:13:12;8.70;99.90
37956;DHT22;23776;51.592;7.180;2024-03-29T05:15:38;8.70;99.90
37956;DHT22;23776;51.592;7.180;2024-03-29T05:18:04;8.60;99.90
37956;DHT22;23776;51.592;7.180;2024-03-29T05:20:30;8.60;99.90
37956;DHT22;23776;51.592;7.180;2024-03-29T05:22:56;8.60;99.90
37956;DHT22;23776;51.592;7.180;2024-03-29T05:25:21;8.60;1.00
37956;DHT22;23776;51.592;7.180;2024-03-29T05:27:48;10.00;1.00
37956;DHT22;23776;51.592;7.180;2024-03-29T05:30:14;8.60;1.00
37956;DHT22;23776;51.592;7.180;2024-03-29T05:32:40;8.60;1.00
37956;DHT22;23776;51.592;7.180;2024-03-29T05:35:06;8.50;1.00
37956;DHT22;23776;51.592;7.180;2024-03-29T05:37:31;8.50;1.00
37956;DHT22;23776;51.592;7.180;2024-03-29T05:39:57;8.50;1.00
37956;DHT22;23776;51.592;7.180;2024-03-29T05:42:30;8.40;1.00
37956;DHT22;23776;51.592;7.180;2024-03-29T05:44:56;8.40;1.00
37956;DHT22;23776;51.592;7.180;2024-03-29T05:47:22;8.40;1.00
37956;DHT22;23776;51.592;7.180;2024-03-29T05:49:49;8.50;1.00
37956;DHT22;23776;51.592;7.180;2024-03-29T05:52:15;8.40;1.00
37956;DHT22;23776;51.592;7.180;2024-03-29T05:54:41;8.40;1.00
37956;DHT22;23776;51.592;7.180;2024-03-29T05:57:07;8.40;1.00
37956;DHT22;23776;51.592;7.180;2024-03-29T05:59:34;8.50;1.00
37956;DHT22;23776;51.592;7.180;2024-03-29T06:01:59;8.50;1.00
37956;DHT22;23776;51.592;7.180;2024-03-29T06:04:25;8.50;1.00
37956;DHT22;23776;51.592;7.180;2024-03-29T06:07:03;8.40;1.00
37956;DHT22;23776;51.592;7.180;2024-03-29T06:09:29;8.40;1.00
37956;DHT22;23776;51.592;7.180;2024-03-29T06:11:56;8.40;11.80
37956;DHT22;23776;51.592;7.180;2024-03-29T06:14:23;8.40;10.70
37956;DHT22;23776;51.592;7.180;2024-03-29T06:17:07;8.30;13.30
37956;DHT22;23776;51.592;7.180;2024-03-29T06:19:54;8.30;12.80
37956;DHT22;23776;51.592;7.180;2024-03-29T06:22:25;8.30;15.80
37956;DHT22;23776;51.592;7.180;2024-03-29T06:24:58;8.30;15.30
37956;DHT22;23776;51.592;7.180;2024-03-29T06:27:25;8.30;22.20
37956;DHT22;23776;51.592;7.180;2024-03-29T06:29:50;8.30;19.20
37956;DHT22;23776;51.592;7.180;2024-03-29T06:32:16;8.30;19.10
37956;DHT22;23776;51.592;7.180;2024-03-29T06:34:47;8.30;18.30
37956;DHT22;23776;51.592;7.180;2024-03-29T06:37:12;8.30;18.80
37956;DHT22;23776;51.592;7.180;2024-03-29T06:39:38;8.20;19.30
37956;DHT22;23776;51.592;7.180;2024-03-29T06:42:04;8.20;16.80
37956;DHT22;23776;51.592;7.180;2024-03-29T06:44:33;8.20;18.30
37956;DHT22;23776;51.592;7.180;2024-03-29T06:46:58;8.20;18.90
37956;DHT22;23776;51.592;7.180;2024-03-29T06:49:24;8.20;19.10
37956;DHT22;23776;51.592;7.180;2024-03-29T06:51:49;8.20;19.70
37956;DHT22;23776;51.592;7.180;2024-03-29T06:54:15;8.20;17.70
37956;DHT22;23776;51.592;7.180;2024-03-29T06:56:41;8.90;18.00
37956;DHT22;23776;51.592;7.180;2024-03-29T06:59:07;8.20;16.80
37956;DHT22;23776;51.592;7.180;2024-03-29T07:01:33;8.30;15.80
37956;DHT22;23776;51.592;7.180;2024-03-29T07:03:59;8.30;14.90
37956;DHT22;23776;51.592;7.180;2024-03-29T07:06:24;9.00;13.10
37956;DHT22;23776;51.592;7.180;2024-03-29T07:08:50;8.40;14.10
37956;DHT22;23776;51.592;7.180;2024-03-29T07:11:15;8.40;15.30
37956;DHT22;23776;51.592;7.180;2024-03-29T07:13:41;8.40;15.80
37956;DHT22;23776;51.592;7.180;2024-03-29T07:16:07;8.50;17.10
37956;DHT22;23776;51.592;7.180;2024-03-29T07:18:33;8.60;17.50
37956;DHT22;23776;51.592;7.180;2024-03-29T07:20:59;8.70;18.00
37956;DHT22;23776;51.592;7.180;2024-03-29T07:23:24;8.70;17.30
37956;DHT22;23776;51.592;7.180;2024-03-29T07:26:04;8.60;16.40
37956;DHT22;23776;51.592;7.180;2024-03-29T07:28:29;8.60;16.70
37956;DHT22;23776;51.592;7.180;2024-03-29T07:30:56;8.70;16.20
37956;DHT22;23776;51.592;7.180;2024-03-29T07:33:22;9.30;15.10
37956;DHT22;23776;51.592;7.180;2024-03-29T07:35:54;8.80;14.10
37956;DHT22;23776;51.592;7.180;2024-03-29T07:38:21;8.70;14.30
37956;DHT22;23776;51.592;7.180;2024-03-29T07:40:47;8.80;15.70
37956;DHT22;23776;51.592;7.180;2024-03-29T07:43:13;8.90;15.40
37956;DHT22;23776;51.592;7.180;2024-03-29T07:45:40;8.90;15.70
37956;DHT22;23776;51.592;7.180;2024-03-29T07:48:09;8.90;12.90
37956;DHT22;23776;51.592;7.180;2024-03-29T07:50:34;9.00;11.40
37956;DHT22;23776;51.592;7.180;2024-03-29T07:53:01;9.30;10.70
37956;DHT22;23776;51.592;7.180;2024-03-29T07:55:27;9.10;7.50
37956;DHT22;23776;51.592;7.180;2024-03-29T07:57:52;9.10;3.20
37956;DHT22;23776;51.592;7.180;2024-03-29T08:00:19;9.10;4.80
37956;DHT22;23776;51.592;7.180;2024-03-29T08:02:44;9.10;1.00
37956;DHT22;23776;51.592;7.180;2024-03-29T08:05:10;9.20;1.00
37956;DHT22;23776;51.592;7.180;2024-03-29T08:07:35;9.20;1.00
37956;DHT22;23776;51.592;7.180;2024-03-29T08:10:01;9.40;1.00
37956;DHT22;23776;51.592;7.180;2024-03-29T08:12:26;9.40;1.00
37956;DHT22;23776;51.592;7.180;2024-03-29T08:14:52;9.60;1.00
37956;DHT22;23776;51.592;7.180;2024-03-29T08:17:17;9.60;1.00
37956;DHT22;23776;51.592;7.180;2024-03-29T08:19:43;9.70;1.00
37956;DHT22;23776;51.592;7.180;2024-03-29T08:22:09;9.70;1.00
37956;DHT22;23776;51.592;7.180;2024-03-29T08:24:37;9.70;1.00
37956;DHT22;23776;51.592;7.180;2024-03-29T08:27:03;9.80;1.00
37956;DHT22;23776;51.592;7.180;2024-03-29T08:29:29;9.80;1.00
37956;DHT22;23776;51.592;7.180;2024-03-29T08:31:54;10.00;1.00
37956;DHT22;23776;51.592;7.180;2024-03-29T08:34:20;10.00;1.00
37956;DHT22;23776;51.592;7.180;2024-03-29T08:36:46;10.00;1.00
37956;DHT22;23776;51.592;7.180;2024-03-29T08:39:12;10.00;1.00
37956;DHT22;23776;51.592;7.180;2024-03-29T08:41:38;9.90;1.00
37956;DHT22;23776;51.592;7.180;2024-03-29T08:44:05;9.90;1.00
37956;DHT22;23776;51.592;7.180;2024-03-29T08:46:30;9.90;1.00
37956;DHT22;23776;51.592;7.180;2024-03-29T08:48:56;9.90;1.00
37956;DHT22;23776;51.592;7.180;2024-03-29T08:51:22;11.20;1.00
37956;DHT22;23776;51.592;7.180;2024-03-29T08:53:47;9.90;1.00
37956;DHT22;23776;51.592;7.180;2024-03-29T08:56:14;10.00;1.00
37956;DHT22;23776;51.592;7.180;2024-03-29T08:58:41;9.90;1.00
37956;DHT22;23776;51.592;7.180;2024-03-29T09:01:06;10.00;1.00
37956;DHT22;23776;51.592;7.180;2024-03-29T09:03:32;9.90;1.00
37956;DHT22;23776;51.592;7.180;2024-03-29T09:05:57;9.90;8.00
37956;DHT22;23776;51.592;7.180;2024-03-29T09:08:23;9.80;14.30
37956;DHT22;23776;51.592;7.180;2024-03-29T09:10:49;9.80;25.00
37956;DHT22;23776;51.592;7.180;2024-03-29T09:13:14;10.10;30.10
37956;DHT22;23776;51.592;7.180;2024-03-29T09:15:40;9.80;36.00
37956;DHT22;23776;51.592;7.180;2024-03-29T09:18:06;9.80;40.20
37956;DHT22;23776;51.592;7.180;2024-03-29T09:20:59;9.80;58.00
37956;DHT22;23776;51.592;7.180;2024-03-29T09:23:25;12.10;64.10
37956;DHT22;23776;51.592;7.180;2024-03-29T09:25:53;9.80;67.10
37956;DHT22;23776;51.592;7.180;2024-03-29T09:28:19;9.80;73.00
37956;DHT22;23776;51.592;7.180;2024-03-29T09:30:46;9.80;74.80
37956;DHT22;23776;51.592;7.180;2024-03-29T09:33:12;9.90;74.10
37956;DHT22;23776;51.592;7.180;2024-03-29T09:35:38;9.90;75.10
37956;DHT22;23776;51.592;7.180;2024-03-29T09:38:03;10.00;76.90
37956;DHT22;23776;51.592;7.180;2024-03-29T09:40:29;10.10;76.80
37956;DHT22;23776;51.592;7.180;2024-03-29T09:42:56;10.30;77.40
37956;DHT22;23776;51.592;7.180;2024-03-29T09:45:37;10.70;76.60
37956;DHT22;23776;51.592;7.180;2024-03-29T09:48:04;10.60;76.10
37956;DHT22;23776;51.592;7.180;2024-03-29T09:50:31;10.60;72.80
37956;DHT22;23776;51.592;7.180;2024-03-29T09:52:58;10.70;66.80
37956;DHT22;23776;51.592;7.180;2024-03-29T09:55:23;10.70;67.20
37956;DHT22;23776;51.592;7.180;2024-03-29T09:57:50;10.70;68.70
37956;DHT22;23776;51.592;7.180;2024-03-29T10:00:16;10.70;66.70
37956;DHT22;23776;51.592;7.180;2024-03-29T10:02:43;10.70;65.20
37956;DHT22;23776;51.592;7.180;2024-03-29T10:05:11;10.80;63.30
37956;DHT22;23776;51.592;7.180;2024-03-29T10:07:38;10.70;62.60
37956;DHT22;23776;51.592;7.180;2024-03-29T10:10:06;10.80;60.50
37956;DHT22;23776;51.592;7.180;2024-03-29T10:12:31;10.80;58.10
37956;DHT22;23776;51.592;7.180;2024-03-29T10:14:57;10.90;58.40
37956;DHT22;23776;51.592;7.180;2024-03-29T10:17:45;11.00;59.30
37956;DHT22;23776;51.592;7.180;2024-03-29T10:20:11;11.20;57.40
37956;DHT22;23776;51.592;7.180;2024-03-29T10:22:42;11.80;50.60
37956;DHT22;23776;51.592;7.180;2024-03-29T10:25:08;11.50;40.10
37956;DHT22;23776;51.592;7.180;2024-03-29T10:27:34;11.60;30.30
37956;DHT22;23776;51.592;7.180;2024-03-29T10:29:59;11.60;28.30
37956;DHT22;23776;51.592;7.180;2024-03-29T10:32:25;11.70;27.60
37956;DHT22;23776;51.592;7.180;2024-03-29T10:34:51;11.70;24.30
37956;DHT22;23776;51.592;7.180;2024-03-29T10:37:17;11.60;27.20
37956;DHT22;23776;51.592;7.180;2024-03-29T10:39:50;11.60;29.90
37956;DHT22;23776;51.592;7.180;2024-03-29T10:42:16;11.70;28.50
37956;DHT22;23776;51.592;7.180;2024-03-29T10:44:42;11.70;29.60
37956;DHT22;23776;51.592;7.180;2024-03-29T10:47:09;11.70;28.10
37956;DHT22;23776;51.592;7.180;2024-03-29T10:49:36;11.70;29.20
37956;DHT22;23776;51.592;7.180;2024-03-29T10:52:03;11.70;30.00
37956;DHT22;23776;51.592;7.180;2024-03-29T10:54:31;11.80;30.00
37956;DHT22;23776;51.592;7.180;2024-03-29T10:57:05;11.80;28.90
37956;DHT22;23776;51.592;7.180;2024-03-29T11:05:02;11.80;24.40
37956;DHT22;23776;51.592;7.180;2024-03-29T11:07:34;12.00;10.10
37956;DHT22;23776;51.592;7.180;2024-03-29T11:10:00;12.10;4.00
37956;DHT22;23776;51.592;7.180;2024-03-29T11:12:30;12.20;1.10
37956;DHT22;23776;51.592;7.180;2024-03-29T11:15:03;12.30;2.00
37956;DHT22;23776;51.592;7.180;2024-03-29T11:17:30;12.40;1.00
37956;DHT22;23776;51.592;7.180;2024-03-29T11:19:58;12.70;1.00
37956;DHT22;23776;51.592;7.180;2024-03-29T11:22:25;13.20;1.00
37956;DHT22;23776;51.592;7.180;2024-03-29T11:24:51;13.60;1.00
37956;DHT22;23776;51.592;7.180;2024-03-29T11:27:17;13.80;1.00
37956;DHT22;23776;51.592;7.180;2024-03-29T11:29:44;14.00;1.00
37956;DHT22;23776;51.592;7.180;2024-03-29T11:32:11;14.10;99.90
37956;DHT22;23776;51.592;7.180;2024-03-29T11:34:43;14.30;91.20
37956;DHT22;23776;51.592;7.180;2024-03-29T11:37:12;14.40;1.00
37956;DHT22;23776;51.592;7.180;2024-03-29T11:39:39;14.60;88.70
37956;DHT22;23776;51.592;7.180;2024-03-29T11:42:06;14.80;99.90
37956;DHT22;23776;51.592;7.180;2024-03-29T11:44:31;14.90;13.30
37956;DHT22;23776;51.592;7.180;2024-03-29T11:46:58;14.90;1.00
37956;DHT22;23776;51.592;7.180;2024-03-29T11:49:24;15.00;99.90
37956;DHT22;23776;51.592;7.180;2024-03-29T11:51:50;15.20;99.90
37956;DHT22;23776;51.592;7.180;2024-03-29T11:54:15;15.40;99.90
37956;DHT22;23776;51.592;7.180;2024-03-29T11:56:42;15.60;99.90
37956;DHT22;23776;51.592;7.180;2024-03-29T11:59:08;15.70;96.20
37956;DHT22;23776;51.592;7.180;2024-03-29T12:01:35;15.90;1.00
37956;DHT22;23776;51.592;7.180;2024-03-29T12:04:04;15.90;1.00
37956;DHT22;23776;51.592;7.180;2024-03-29T12:06:30;16.20;99.90
37956;DHT22;23776;51.592;7.180;2024-03-29T12:08:56;16.20;99.90
37956;DHT22;23776;51.592;7.180;2024-03-29T12:11:22;16.10;99.90
37956;DHT22;23776;51.592;7.180;2024-03-29T12:13:49;15.80;99.90
37956;DHT22;23776;51.592;7.180;2024-03-29T12:16:15;15.10;1.00
37956;DHT22;23776;51.592;7.180;2024-03-29T12:18:40;15.10;1.00
37956;DHT22;23776;51.592;7.180;2024-03-29T12:21:06;14.90;1.00
37956;DHT22;23776;51.592;7.180;2024-03-29T12:23:32;14.70;1.00
37956;DHT22;23776;51.592;7.180;2024-03-29T12:25:58;14.50;61.10
37956;DHT22;23776;51.592;7.180;2024-03-29T12:28:25;14.30;1.00
37956;DHT22;23776;51.592;7.180;2024-03-29T12:30:51;13.80;1.00
37956;DHT22;23776;51.592;7.180;2024-03-29T12:33:19;13.50;99.90
37956;DHT22;23776;51.592;7.180;2024-03-29T12:35:50;13.20;99.90
37956;DHT22;23776;51.592;7.180;2024-03-29T12:38:18;13.10;1.00
37956;DHT22;23776;51.592;7.180;2024-03-29T12:40:48;12.80;99.90
37956;DHT22;23776;51.592;7.180;2024-03-29T12:43:19;12.80;1.00
37956;DHT22;23776;51.592;7.180;2024-03-29T12:45:45;12.70;98.10
37956;DHT22;23776;51.592;7.180;2024-03-29T12:48:16;12.70;99.90
37956;DHT22;23776;51.592;7.180;2024-03-29T12:50:43;12.90;99.90
37956;DHT22;23776;51.592;7.180;2024-03-29T12:53:10;12.90;99.90
37956;DHT22;23776;51.592;7.180;2024-03-29T12:55:38;12.90;81.40
37956;DHT22;23776;51.592;7.180;2024-03-29T12:58:05;13.10;99.90
37956;DHT22;23776;51.592;7.180;2024-03-29T13:00:35;13.30;1.00
37956;DHT22;23776;51.592;7.180;2024-03-29T13:03:00;13.50;99.90
37956;DHT22;23776;51.592;7.180;2024-03-29T13:05:26;13.70;1.00
37956;DHT22;23776;51.592;7.180;2024-03-29T13:07:53;13.90;1.00
37956;DHT22;23776;51.592;7.180;2024-03-29T13:10:19;14.60;1.00
37956;DHT22;23776;51.592;7.180;2024-03-29T13:12:47;15.30;45.00
37956;DHT22;23776;51.592;7.180;2024-03-29T13:15:25;16.00;1.00
37956;DHT22;23776;51.592;7.180;2024-03-29T13:17:53;16.40;1.00
37956;DHT22;23776;51.592;7.180;2024-03-29T13:20:19;16.70;99.90
37956;DHT22;23776;51.592;7.180;2024-03-29T13:22:46;16.90;99.90
37956;DHT22;23776;51.592;7.180;2024-03-29T13:25:13;17.20;99.90
37956;DHT22;23776;51.592;7.180;2024-03-29T13:27:40;17.50;7.90
37956;DHT22;23776;51.592;7.180;2024-03-29T13:30:07;17.50;1.00
37956;DHT22;23776;51.592;7.180;2024-03-29T13:32:35;17.40;1.00
37956;DHT22;23776;51.592;7.180;2024-03-29T13:35:01;17.50;1.00
37956;DHT22;23776;51.592;7.180;2024-03-29T13:37:27;17.30;1.00
37956;DHT22;23776;51.592;7.180;2024-03-29T13:39:54;17.20;1.00
37956;DHT22;23776;51.592;7.180;2024-03-29T13:42:20;17.10;1.00
37956;DHT22;23776;51.592;7.180;2024-03-29T13:44:49;17.20;1.00
37956;DHT22;23776;51.592;7.180;2024-03-29T13:47:14;17.10;1.00
37956;DHT22;23776;51.592;7.180;2024-03-29T13:49:42;17.00;1.00
37956;DHT22;23776;51.592;7.180;2024-03-29T13:52:08;16.90;1.00
37956;DHT22;23776;51.592;7.180;2024-03-29T13:54:33;16.90;1.00
37956;DHT22;23776;51.592;7.180;2024-03-29T13:57:00;16.90;1.00
37956;DHT22;23776;51.592;7.180;2024-03-29T13:59:27;16.80;1.00
37956;DHT22;23776;51.592;7.180;2024-03-29T14:01:52;16.60;1.00
37956;DHT22;23776;51.592;7.180;2024-03-29T14:04:18;16.60;1.00
37956;DHT22;23776;51.592;7.180;2024-03-29T14:06:44;15.50;1.00
37956;DHT22;23776;51.592;7.180;2024-03-29T14:09:09;17.10;1.00
37956;DHT22;23776;51.592;7.180;2024-03-29T14:11:35;17.30;99.90
37956;DHT22;23776;51.592;7.180;2024-03-29T14:14:00;17.60;99.90
37956;DHT22;23776;51.592;7.180;2024-03-29T14:16:26;18.10;99.90
37956;DHT22;23776;51.592;7.180;2024-03-29T14:18:51;18.10;99.90
37956;DHT22;23776;51.592;7.180;2024-03-29T14:21:17;17.80;99.90
37956;DHT22;23776;51.592;7.180;2024-03-29T14:23:42;17.60;99.90
37956;DHT22;23776;51.592;7.180;2024-03-29T14:26:08;17.40;99.90
37956;DHT22;23776;51.592;7.180;2024-03-29T14:28:33;17.20;99.90
37956;DHT22;23776;51.592;7.180;2024-03-29T14:30:59;17.10;99.90
37956;DHT22;23776;51.592;7.180;2024-03-29T14:33:24;16.90;99.90
37956;DHT22;23776;51.592;7.180;2024-03-29T14:35:50;16.80;99.90
37956;DHT22;23776;51.592;7.180;2024-03-29T14:38:16;16.60;99.90
37956;DHT22;23776;51.592;7.180;2024-03-29T14:40:42;16.60;99.90
37956;DHT22;23776;51.592;7.180;2024-03-29T14:43:07;16.70;1.00
37956;DHT22;23776;51.592;7.180;2024-03-29T14:45:33;16.20;1.00
37956;DHT22;23776;51.592;7.180;2024-03-29T14:47:59;16.50;1.00
37956;DHT22;23776;51.592;7.180;2024-03-29T14:50:24;16.40;1.00
37956;DHT22;23776;51.592;7.180;2024-03-29T14:52:50;16.40;1.00
37956;DHT22;23776;51.592;7.180;2024-03-29T14:55:15;16.40;1.00
37956;DHT22;23776;51.592;7.180;2024-03-29T14:57:41;16.50;1.00
37956;DHT22;23776;51.592;7.180;2024-03-29T15:00:07;16.60;1.00
37956;DHT22;23776;51.592;7.180;2024-03-29T15:02:34;16.60;1.00
37956;DHT22;23776;51.592;7.180;2024-03-29T15:05:00;16.50;1.00
37956;DHT22;23776;51.592;7.180;2024-03-29T15:07:25;16.50;1.00
37956;DHT22;23776;51.592;7.180;2024-03-29T15:09:51;16.60;1.00
37956;DHT22;23776;51.592;7.180;2024-03-29T15:12:17;16.80;1.00
37956;DHT22;23776;51.592;7.180;2024-03-29T15:14:43;17.10;1.00
37956;DHT22;23776;51.592;7.180;2024-03-29T15:17:08;17.10;1.00
37956;DHT22;23776;51.592;7.180;2024-03-29T15:19:34;17.40;1.00
37956;DHT22;23776;51.592;7.180;2024-03-29T15:22:00;17.40;1.00
37956;DHT22;23776;51.592;7.180;2024-03-29T15:24:25;17.30;1.00
37956;DHT22;23776;51.592;7.180;2024-03-29T15:26:51;17.10;1.00
37956;DHT22;23776;51.592;7.180;2024-03-29T15:29:24;16.90;1.00
37956;DHT22;23776;51.592;7.180;2024-03-29T15:31:50;16.90;1.00
37956;DHT22;23776;51.592;7.180;2024-03-29T15:34:15;16.70;1.00
37956;DHT22;23776;51.592;7.180;2024-03-29T15:36:41;16.60;1.00
37956;DHT22;23776;51.592;7.180;2024-03-29T15:39:06;16.50;1.00
37956;DHT22;23776;51.592;7.180;2024-03-29T15:41:34;16.30;1.00
37956;DHT22;23776;51.592;7.180;2024-03-29T15:44:01;16.30;1.00
37956;DHT22;23776;51.592;7.180;2024-03-29T15:46:27;16.10;1.00
37956;DHT22;23776;51.592;7.180;2024-03-29T15:48:52;16.10;1.00
37956;DHT22;23776;51.592;7.180;2024-03-29T15:51:18;16.30;1.00